createdAt,value
2022-11-24T00:02:25.073Z,-0.21
2022-11-24T00:04:56.489Z,-0.13
2022-11-24T00:07:27.576Z,-0.09
2022-11-24T00:09:58.696Z,-0.08
2022-11-24T00:12:29.722Z,-0.04
2022-11-24T00:15:00.769Z,-0.02
2022-11-24T00:17:31.809Z,-0.02
2022-11-24T00:20:02.854Z,-0.03
2022-11-24T00:22:33.895Z,-0.07
2022-11-24T00:25:05.453Z,-0.05
2022-11-24T00:27:36.496Z,-0.03
2022-11-24T00:30:09.717Z,-0.07
2022-11-24T00:32:40.766Z,-0.07
2022-11-24T00:35:12.189Z,-0.08
2022-11-24T00:37:43.228Z,-0.21
2022-11-24T00:40:15.345Z,-0.28
2022-11-24T00:42:46.336Z,-0.27
2022-11-24T00:45:17.482Z,-0.21
2022-11-24T00:47:48.425Z,-0.23
2022-11-24T00:50:20.388Z,-0.30
2022-11-24T00:52:51.329Z,-0.36
2022-11-24T00:55:22.789Z,-0.33
2022-11-24T00:57:53.825Z,-0.24
2022-11-24T01:00:24.808Z,-0.17
2022-11-24T01:02:56.388Z,-0.13
2022-11-24T01:05:27.672Z,-0.06
2022-11-24T01:07:58.613Z,-0.01
2022-11-24T01:10:29.659Z,0.05
2022-11-24T01:13:01.007Z,0.03
2022-11-24T01:15:32.087Z,0.02
2022-11-24T01:18:03.607Z,0.02
2022-11-24T01:20:35.059Z,0.04
2022-11-24T01:23:06.001Z,0.02
2022-11-24T01:25:40.569Z,-0.00
2022-11-24T01:28:11.564Z,-0.04
2022-11-24T01:30:42.676Z,-0.05
2022-11-24T01:33:14.163Z,-0.05
2022-11-24T01:35:45.206Z,-0.04
2022-11-24T01:38:16.251Z,0.01
2022-11-24T01:40:47.708Z,0.04
2022-11-24T01:43:22.331Z,0.03
2022-11-24T01:45:53.613Z,-0.01
2022-11-24T01:48:29.473Z,0.01
2022-11-24T01:51:09.786Z,0.03
2022-11-24T01:53:43.734Z,0.01
2022-11-24T01:56:16.476Z,-0.03
2022-11-24T01:58:50.595Z,-0.06
2022-11-24T02:01:22.024Z,-0.06
2022-11-24T02:03:54.109Z,-0.03
2022-11-24T02:06:28.666Z,0.01
2022-11-24T02:09:04.076Z,-0.01
2022-11-24T02:11:38.597Z,-0.06
2022-11-24T02:14:12.102Z,-0.06
2022-11-24T02:16:45.551Z,-0.06
2022-11-24T02:19:26.158Z,-0.11
2022-11-24T02:21:57.103Z,-0.11
2022-11-24T02:24:33.960Z,-0.10
2022-11-24T02:27:05.462Z,-0.08
2022-11-24T02:29:36.674Z,-0.12
2022-11-24T02:32:11.345Z,-0.17
2022-11-24T02:34:42.346Z,-0.14
2022-11-24T02:37:13.389Z,-0.10
2022-11-24T02:39:44.433Z,-0.08
2022-11-24T02:42:16.436Z,-0.04
2022-11-24T02:44:52.863Z,-0.00
2022-11-24T02:47:24.117Z,0.02
2022-11-24T02:49:55.238Z,0.05
2022-11-24T02:52:26.303Z,0.08
2022-11-24T02:54:57.351Z,0.09
2022-11-24T02:57:28.393Z,0.13
2022-11-24T02:59:59.429Z,0.15
2022-11-24T03:02:30.526Z,0.17
2022-11-24T03:05:01.724Z,0.17
2022-11-24T03:07:32.727Z,0.18
2022-11-24T03:10:03.765Z,0.18
2022-11-24T03:12:34.749Z,0.17
2022-11-24T03:15:06.769Z,0.15
2022-11-24T03:17:37.860Z,0.11
2022-11-24T03:20:11.357Z,0.09
2022-11-24T03:22:42.926Z,0.11
2022-11-24T03:25:14.291Z,0.07
2022-11-24T03:27:45.412Z,-0.01
2022-11-24T03:30:17.916Z,-0.12
2022-11-24T03:32:48.931Z,-0.15
2022-11-24T03:35:20.281Z,-0.13
2022-11-24T03:37:51.634Z,-0.12
2022-11-24T03:40:22.982Z,-0.11
2022-11-24T03:42:54.029Z,-0.09
2022-11-24T03:48:16.787Z,-0.13
2022-11-24T03:50:57.450Z,-0.11
2022-11-24T03:53:30.639Z,-0.12
2022-11-24T03:56:02.322Z,-0.10
2022-11-24T03:58:33.442Z,-0.11
2022-11-24T04:01:04.590Z,-0.15
2022-11-24T04:03:35.736Z,-0.14
2022-11-24T04:06:06.883Z,-0.11
2022-11-24T04:08:38.130Z,-0.08
2022-11-24T04:11:09.275Z,-0.04
2022-11-24T04:13:40.318Z,-0.06
2022-11-24T04:16:12.184Z,-0.07
2022-11-24T04:18:43.743Z,-0.10
2022-11-24T04:21:14.678Z,-0.09
2022-11-24T04:23:45.661Z,-0.08
2022-11-24T04:26:16.865Z,-0.05
2022-11-24T04:28:47.909Z,-0.03
2022-11-24T04:31:19.492Z,-0.01
2022-11-24T04:33:50.506Z,0.03
2022-11-24T04:36:21.550Z,0.07
2022-11-24T04:39:23.501Z,0.07
2022-11-24T04:41:46.055Z,0.08
2022-11-24T04:44:17.265Z,0.10
2022-11-24T04:46:48.298Z,0.11
2022-11-24T04:49:20.100Z,0.14
2022-11-24T04:51:51.143Z,0.12
2022-11-24T04:54:22.143Z,0.08
2022-11-24T04:56:54.680Z,0.08
2022-11-24T04:59:26.011Z,0.06
2022-11-24T05:01:57.000Z,0.03
2022-11-24T05:04:28.053Z,-0.01
2022-11-24T05:06:59.245Z,-0.01
2022-11-24T05:09:48.163Z,-0.02
2022-11-24T05:12:21.176Z,-0.08
2022-11-24T05:14:52.121Z,-0.09
2022-11-24T05:17:23.166Z,-0.07
2022-11-24T05:19:54.102Z,-0.09
2022-11-24T05:22:25.043Z,-0.06
2022-11-24T05:24:55.986Z,0.00
2022-11-24T05:27:26.926Z,0.06
2022-11-24T05:29:57.868Z,0.10
2022-11-24T05:32:28.909Z,0.14
2022-11-24T05:35:02.409Z,0.15
2022-11-24T05:37:33.555Z,0.15
2022-11-24T05:40:05.708Z,0.12
2022-11-24T05:42:47.213Z,0.09
2022-11-24T05:45:20.946Z,0.13
2022-11-24T05:47:53.283Z,0.12
2022-11-24T05:50:25.045Z,0.12
2022-11-24T05:52:55.985Z,0.12
2022-11-24T05:55:26.824Z,0.13
2022-11-24T05:58:02.779Z,0.16
2022-11-24T06:00:35.406Z,0.13
2022-11-24T06:03:06.528Z,0.10
2022-11-24T06:05:37.436Z,0.12
2022-11-24T06:08:08.277Z,0.08
2022-11-24T06:10:38.914Z,0.08
2022-11-24T06:13:10.161Z,0.11
2022-11-24T06:15:41.499Z,0.15
2022-11-24T06:18:12.113Z,0.18
2022-11-24T06:20:53.089Z,0.21
2022-11-24T06:23:33.802Z,0.23
2022-11-24T06:26:04.473Z,0.19
2022-11-24T06:28:35.144Z,0.18
2022-11-24T06:31:06.544Z,0.19
2022-11-24T06:33:38.871Z,0.22
2022-11-24T06:36:13.083Z,0.23
2022-11-24T06:38:43.922Z,0.24
2022-11-24T06:41:17.320Z,0.23
2022-11-24T06:43:48.574Z,0.19
2022-11-24T06:46:19.331Z,0.17
2022-11-24T06:48:51.898Z,0.20
2022-11-24T06:51:22.639Z,0.23
2022-11-24T06:53:53.254Z,0.19
2022-11-24T06:56:24.297Z,0.12
2022-11-24T06:58:55.749Z,0.13
2022-11-24T07:01:28.521Z,0.17
2022-11-24T07:03:59.782Z,0.20
2022-11-24T07:06:30.517Z,0.19
2022-11-24T07:09:01.549Z,0.23
2022-11-24T07:11:32.399Z,0.30
2022-11-24T07:14:03.171Z,0.35
2022-11-24T07:16:34.479Z,0.37
2022-11-24T07:19:05.429Z,0.35
2022-11-24T07:21:36.032Z,0.31
2022-11-24T07:24:07.967Z,0.28
2022-11-24T07:26:38.765Z,0.24
2022-11-24T07:29:09.377Z,0.20
2022-11-24T07:31:40.149Z,0.25
2022-11-24T07:34:11.178Z,0.28
2022-11-24T07:36:41.796Z,0.28
2022-11-24T07:39:12.649Z,0.29
2022-11-24T07:41:43.283Z,0.30
2022-11-24T07:44:13.919Z,0.29
2022-11-24T07:46:44.786Z,0.28
2022-11-24T07:49:15.428Z,0.26
2022-11-24T07:51:46.090Z,0.24
2022-11-24T07:54:16.862Z,0.24
2022-11-24T07:56:48.772Z,0.22
2022-11-24T07:59:19.345Z,0.20
2022-11-24T08:01:50.158Z,0.20
2022-11-24T08:04:20.941Z,0.21
2022-11-24T08:06:51.877Z,0.26
2022-11-24T08:09:22.460Z,0.28
2022-11-24T08:11:53.151Z,0.27
2022-11-24T08:14:23.756Z,0.27
2022-11-24T08:16:54.502Z,0.34
2022-11-24T08:19:25.774Z,0.38
2022-11-24T08:21:56.348Z,0.41
2022-11-24T08:24:27.864Z,0.44
2022-11-24T08:26:58.468Z,0.46
2022-11-24T08:29:33.086Z,0.44
2022-11-24T08:32:03.951Z,0.43
2022-11-24T08:34:35.152Z,0.48
2022-11-24T08:37:07.529Z,0.56
2022-11-24T08:39:38.203Z,0.54
2022-11-24T08:42:08.939Z,0.47
2022-11-24T08:44:39.572Z,0.48
2022-11-24T08:47:10.187Z,0.55
2022-11-24T08:49:40.845Z,0.57
2022-11-24T08:52:11.491Z,0.54
2022-11-24T08:54:44.466Z,0.58
2022-11-24T08:57:21.582Z,0.58
2022-11-24T08:59:52.691Z,0.62
2022-11-24T09:02:23.283Z,0.71
2022-11-24T09:04:54.008Z,0.77
2022-11-24T09:07:24.740Z,0.76
2022-11-24T09:09:55.562Z,0.76
2022-11-24T09:12:26.272Z,0.79
2022-11-24T09:14:56.904Z,0.81
2022-11-24T09:17:27.528Z,0.85
2022-11-24T09:22:47.625Z,0.88
2022-11-24T09:25:18.273Z,0.88
2022-11-24T09:27:48.848Z,0.80
2022-11-24T09:30:20.426Z,0.76
2022-11-24T09:32:51.093Z,0.74
2022-11-24T09:35:21.731Z,0.77
2022-11-24T09:37:52.466Z,0.74
2022-11-24T09:40:25.023Z,0.73
2022-11-24T09:43:04.985Z,0.67
2022-11-24T09:46:05.021Z,0.70
2022-11-24T09:48:41.178Z,0.75
2022-11-24T09:51:14.698Z,0.75
2022-11-24T09:53:50.300Z,0.77
2022-11-24T09:56:24.455Z,0.86
2022-11-24T09:59:00.368Z,0.92
2022-11-24T10:01:33.360Z,0.93
2022-11-24T10:04:06.585Z,0.94
2022-11-24T10:06:45.165Z,0.96
2022-11-24T10:09:32.563Z,0.94
2022-11-24T10:12:16.825Z,0.95
2022-11-24T10:15:25.615Z,1.01
2022-11-24T10:18:17.011Z,0.91
2022-11-24T10:21:01.077Z,0.86
2022-11-24T10:23:43.779Z,0.93
2022-11-24T10:26:19.820Z,0.91
2022-11-24T10:28:55.745Z,0.93
2022-11-24T10:31:32.397Z,1.00
2022-11-24T10:34:10.373Z,1.03
2022-11-24T10:36:49.090Z,1.08
2022-11-24T10:39:25.079Z,1.10
2022-11-24T10:42:02.617Z,1.11
2022-11-24T10:44:33.262Z,1.12
2022-11-24T10:47:04.003Z,1.13
2022-11-24T10:49:35.412Z,1.17
2022-11-24T10:52:13.875Z,1.23
2022-11-24T10:54:59.064Z,1.26
2022-11-24T10:57:36.065Z,1.25
2022-11-24T11:00:34.386Z,1.27
2022-11-24T11:03:20.672Z,1.26
2022-11-24T11:05:55.301Z,1.11
2022-11-24T11:08:28.881Z,1.15
2022-11-24T11:11:19.775Z,1.21
2022-11-24T11:14:02.970Z,1.27
2022-11-24T11:16:39.638Z,1.30
2022-11-24T11:19:54.120Z,1.34
2022-11-24T11:22:28.586Z,1.41
2022-11-24T11:25:19.572Z,1.46
2022-11-24T11:27:50.844Z,1.52
2022-11-24T11:36:17.026Z,1.52
2022-11-24T11:38:49.969Z,1.50
2022-11-24T11:41:32.215Z,1.46
2022-11-24T11:44:21.480Z,1.45
2022-11-24T11:46:53.004Z,1.42
2022-11-24T11:49:24.023Z,1.41
2022-11-24T11:52:39.736Z,1.42
2022-11-24T11:55:33.289Z,1.41
2022-11-24T11:58:22.343Z,1.39
2022-11-24T12:01:01.575Z,1.41
2022-11-24T12:03:51.993Z,1.41
2022-11-24T12:06:38.965Z,1.43
2022-11-24T12:09:23.740Z,1.44
2022-11-24T12:12:10.245Z,1.43
2022-11-24T12:14:53.188Z,1.39
2022-11-24T12:17:33.560Z,1.35
2022-11-24T12:20:32.777Z,1.43
2022-11-24T12:23:15.535Z,1.48
2022-11-24T12:25:53.053Z,1.52
2022-11-24T12:28:37.363Z,1.47
2022-11-24T12:31:13.470Z,1.43
2022-11-24T12:34:01.822Z,1.45
2022-11-24T12:36:53.414Z,1.42
2022-11-24T12:39:31.344Z,1.40
2022-11-24T12:42:14.261Z,1.42
2022-11-24T12:45:01.667Z,1.45
2022-11-24T12:47:40.847Z,1.44
2022-11-24T12:50:14.292Z,1.48
2022-11-24T12:52:54.132Z,1.52
2022-11-24T12:55:30.111Z,1.54
2022-11-24T12:58:11.168Z,1.58
2022-11-24T13:00:55.551Z,1.58
2022-11-24T13:03:40.778Z,1.59
2022-11-24T13:06:18.674Z,1.59
2022-11-24T13:08:49.866Z,1.60
2022-11-24T13:11:43.141Z,1.55
2022-11-24T13:14:22.826Z,1.49
2022-11-24T13:17:28.034Z,1.50
2022-11-24T13:19:50.583Z,1.54
2022-11-24T13:22:26.599Z,1.57
2022-11-24T13:25:20.154Z,1.55
2022-11-24T13:27:54.029Z,1.57
2022-11-24T13:30:57.539Z,1.58
2022-11-24T13:33:36.279Z,1.58
2022-11-24T13:36:34.412Z,1.57
2022-11-24T13:39:19.739Z,1.53
2022-11-24T13:42:10.478Z,1.57
2022-11-24T13:45:02.189Z,1.57
2022-11-24T13:47:39.123Z,1.54
2022-11-24T13:50:47.571Z,1.53
2022-11-24T13:53:30.227Z,1.56
2022-11-24T13:56:04.376Z,1.59
2022-11-24T13:58:40.039Z,1.62
2022-11-24T14:01:21.330Z,1.60
2022-11-24T14:04:29.423Z,1.57
2022-11-24T14:07:07.414Z,1.53
2022-11-24T14:09:44.587Z,1.44
2022-11-24T14:12:19.336Z,1.35
2022-11-24T14:14:50.718Z,1.34
2022-11-24T14:17:23.666Z,1.30
2022-11-24T14:19:55.979Z,1.28
2022-11-24T14:22:32.443Z,1.29
2022-11-24T14:25:04.944Z,1.28
2022-11-24T14:27:38.197Z,1.28
2022-11-24T14:30:23.108Z,1.24
2022-11-24T14:33:01.449Z,1.22
2022-11-24T14:35:34.748Z,1.22
2022-11-24T14:38:07.184Z,1.16
2022-11-24T14:40:43.700Z,1.10
2022-11-24T14:43:24.008Z,1.10
2022-11-24T14:45:57.331Z,1.14
2022-11-24T14:48:31.614Z,1.18
2022-11-24T14:51:14.672Z,1.22
2022-11-24T14:53:46.611Z,1.21
2022-11-24T14:56:29.349Z,1.18
2022-11-24T14:59:00.498Z,1.12
2022-11-24T15:01:36.141Z,1.07
2022-11-24T15:04:38.970Z,1.09
2022-11-24T15:07:19.785Z,1.09
2022-11-24T15:09:57.838Z,1.10
2022-11-24T15:12:34.174Z,1.12
2022-11-24T15:15:07.814Z,1.14
2022-11-24T15:17:38.514Z,1.14
2022-11-24T15:20:21.331Z,1.15
2022-11-24T15:22:52.790Z,1.16
2022-11-24T15:25:33.697Z,1.15
2022-11-24T15:28:04.433Z,1.14
2022-11-24T15:30:37.431Z,1.14
2022-11-24T15:33:16.620Z,1.16
2022-11-24T15:35:47.285Z,1.16
2022-11-24T15:38:18.534Z,1.13
2022-11-24T15:40:51.407Z,1.09
2022-11-24T15:43:30.282Z,1.08
2022-11-24T15:46:01.994Z,1.08
2022-11-24T15:48:32.895Z,1.13
2022-11-24T15:51:06.800Z,1.18
2022-11-24T15:53:39.765Z,1.18
2022-11-24T15:56:16.128Z,1.11
2022-11-24T15:58:46.886Z,1.07
2022-11-24T16:01:17.706Z,1.02
2022-11-24T16:03:49.267Z,0.99
2022-11-24T16:06:25.037Z,0.98
2022-11-24T16:08:57.679Z,1.01
2022-11-24T16:11:28.677Z,0.97
2022-11-24T16:13:59.498Z,0.91
2022-11-24T16:16:30.309Z,0.92
2022-11-24T16:19:01.189Z,0.90
2022-11-24T16:21:31.909Z,0.86
2022-11-24T16:24:02.642Z,0.89
2022-11-24T16:26:33.277Z,0.87
2022-11-24T16:29:04.321Z,0.86
2022-11-24T16:31:35.008Z,0.90
2022-11-24T16:34:05.793Z,0.96
2022-11-24T16:36:36.426Z,0.97
2022-11-24T16:39:07.048Z,0.95
2022-11-24T16:41:37.809Z,0.93
2022-11-24T16:44:09.161Z,0.96
2022-11-24T16:46:39.734Z,0.95
2022-11-24T16:49:11.586Z,0.91
2022-11-24T16:51:43.401Z,0.85
2022-11-24T16:54:14.803Z,0.84
2022-11-24T16:56:45.593Z,0.88
2022-11-24T16:59:16.230Z,0.94
2022-11-24T17:01:50.558Z,0.97
2022-11-24T17:04:21.486Z,0.97
2022-11-24T17:06:52.117Z,0.99
2022-11-24T17:09:22.723Z,1.03
2022-11-24T17:11:53.301Z,1.03
2022-11-24T17:14:24.030Z,1.03
2022-11-24T17:16:54.826Z,1.03
2022-11-24T17:19:26.241Z,1.02
2022-11-24T17:21:56.823Z,0.95
2022-11-24T17:24:27.586Z,0.95
2022-11-24T17:26:58.311Z,0.99
2022-11-24T17:29:30.181Z,1.00
2022-11-24T17:32:00.875Z,1.04
2022-11-24T17:34:31.586Z,1.06
2022-11-24T17:37:02.172Z,1.07
2022-11-24T17:39:32.925Z,1.10
2022-11-24T17:42:03.862Z,1.11
2022-11-24T17:44:35.187Z,1.14
2022-11-24T17:47:06.267Z,1.17
2022-11-24T17:49:36.891Z,1.16
2022-11-24T17:52:08.074Z,1.16
2022-11-24T17:54:46.476Z,1.15
2022-11-24T17:57:17.696Z,1.16
2022-11-24T17:59:48.332Z,1.16
2022-11-24T18:02:18.955Z,1.17
2022-11-24T18:04:49.905Z,1.19
2022-11-24T18:07:20.693Z,1.17
2022-11-24T18:09:51.366Z,1.16
2022-11-24T18:12:21.964Z,1.11
2022-11-24T18:14:52.689Z,1.06
2022-11-24T18:17:23.382Z,1.09
2022-11-24T18:19:54.118Z,1.01
2022-11-24T18:22:49.872Z,0.96
2022-11-24T18:25:15.443Z,0.96
2022-11-24T18:27:46.094Z,0.96
2022-11-24T18:30:17.886Z,1.01
2022-11-24T18:32:48.460Z,1.01
2022-11-24T18:35:19.184Z,1.02
2022-11-24T18:37:49.844Z,1.00
2022-11-24T18:40:20.500Z,0.97
2022-11-24T18:42:51.110Z,0.94
2022-11-24T18:45:21.834Z,0.95
2022-11-24T18:47:52.481Z,0.98
2022-11-24T18:50:23.183Z,0.95
2022-11-24T18:52:55.803Z,0.96
2022-11-24T18:55:26.534Z,0.96
2022-11-24T18:57:58.327Z,0.98
2022-11-24T19:00:29.170Z,1.01
2022-11-24T19:02:59.853Z,1.03
2022-11-24T19:05:30.603Z,1.05
2022-11-24T19:08:01.180Z,1.03
2022-11-24T19:10:31.867Z,0.98
2022-11-24T19:13:02.508Z,1.00
2022-11-24T19:15:36.281Z,1.03
2022-11-24T19:18:07.767Z,0.99
2022-11-24T19:20:38.832Z,0.98
2022-11-24T19:23:09.647Z,1.00
2022-11-24T19:25:40.386Z,1.02
2022-11-24T19:28:12.998Z,0.99
2022-11-24T19:30:45.454Z,0.94
2022-11-24T19:33:16.262Z,0.89
2022-11-24T19:35:47.117Z,0.87
2022-11-24T19:38:17.942Z,0.89
2022-11-24T19:40:48.589Z,0.93
2022-11-24T19:43:19.206Z,0.97
2022-11-24T19:45:49.925Z,0.98
2022-11-24T19:48:20.799Z,1.00
2022-11-24T19:50:58.698Z,1.00
2022-11-24T19:53:29.328Z,0.99
2022-11-24T19:56:06.150Z,0.92
2022-11-24T19:58:37.581Z,0.84
2022-11-24T20:01:12.898Z,0.82
2022-11-24T20:03:45.011Z,0.82
2022-11-24T20:06:17.106Z,0.81
2022-11-24T20:08:47.685Z,0.81
2022-11-24T20:11:20.382Z,0.82
2022-11-24T20:13:51.810Z,0.76
2022-11-24T20:16:26.607Z,0.73
2022-11-24T20:18:58.859Z,0.73
2022-11-24T20:21:32.031Z,0.75
2022-11-24T20:24:04.262Z,0.78
2022-11-24T20:26:37.149Z,0.81
2022-11-24T20:29:09.822Z,0.84
2022-11-24T20:31:43.040Z,0.84
2022-11-24T20:34:14.678Z,0.81
2022-11-24T20:36:47.119Z,0.77
2022-11-24T20:39:19.630Z,0.75
2022-11-24T20:41:50.336Z,0.78
2022-11-24T20:44:23.396Z,0.82
2022-11-24T20:46:55.626Z,0.84
2022-11-24T20:49:27.324Z,0.81
2022-11-24T20:51:58.335Z,0.80
2022-11-24T20:54:29.181Z,0.83
2022-11-24T20:57:00.223Z,0.83
2022-11-24T20:59:30.849Z,0.88
2022-11-24T21:02:01.515Z,0.92
2022-11-24T21:04:35.282Z,0.89
2022-11-24T21:07:06.227Z,0.81
2022-11-24T21:09:36.860Z,0.81
2022-11-24T21:12:08.417Z,0.82
2022-11-24T21:14:39.181Z,0.79
2022-11-24T21:17:10.708Z,0.80
2022-11-24T21:19:41.341Z,0.79
2022-11-24T21:22:12.080Z,0.74
2022-11-24T21:24:42.712Z,0.71
2022-11-24T21:27:13.344Z,0.73
2022-11-24T21:29:43.963Z,0.74
2022-11-24T21:32:14.527Z,0.76
2022-11-24T21:34:45.111Z,0.78
2022-11-24T21:37:15.805Z,0.78
2022-11-24T21:39:46.749Z,0.80
2022-11-24T21:42:17.465Z,0.85
2022-11-24T21:44:48.194Z,0.88
2022-11-24T21:47:18.827Z,0.92
2022-11-24T21:49:49.461Z,0.93
2022-11-24T21:52:20.303Z,0.94
2022-11-24T21:54:50.951Z,0.94
2022-11-24T21:57:23.206Z,0.95
2022-11-24T21:59:53.833Z,0.94
2022-11-24T22:02:24.617Z,0.86
2022-11-24T22:04:55.317Z,0.83
2022-11-24T22:07:26.127Z,0.82
2022-11-24T22:09:56.758Z,0.76
2022-11-24T22:12:27.413Z,0.76
2022-11-24T22:14:58.053Z,0.79
2022-11-24T22:17:30.775Z,0.81
2022-11-24T22:20:01.499Z,0.79
2022-11-24T22:22:32.082Z,0.77
2022-11-24T22:25:03.047Z,0.76
2022-11-24T22:27:33.883Z,0.76
2022-11-24T22:30:05.998Z,0.79
2022-11-24T22:32:36.791Z,0.78
2022-11-24T22:35:09.654Z,0.78
2022-11-24T22:37:40.312Z,0.81
2022-11-24T22:40:12.846Z,0.87
2022-11-24T22:42:43.624Z,0.90
2022-11-24T22:45:14.714Z,0.91
2022-11-24T22:47:45.405Z,0.92
2022-11-24T22:50:17.163Z,0.91
2022-11-24T22:52:47.802Z,0.83
2022-11-24T22:55:18.841Z,0.77
2022-11-24T22:57:52.211Z,0.75
2022-11-24T23:00:24.511Z,0.78
2022-11-24T23:02:56.625Z,0.78
2022-11-24T23:05:29.260Z,0.77
2022-11-24T23:08:00.072Z,0.77
2022-11-24T23:10:30.919Z,0.76
2022-11-24T23:13:01.727Z,0.80
2022-11-24T23:15:32.578Z,0.85
2022-11-24T23:18:03.385Z,0.86
2022-11-24T23:20:35.188Z,0.85
2022-11-24T23:23:06.004Z,0.86
2022-11-24T23:25:37.522Z,0.86
2022-11-24T23:28:08.437Z,0.86
2022-11-24T23:30:39.323Z,0.85
2022-11-24T23:33:10.224Z,0.86
2022-11-24T23:35:41.061Z,0.85
2022-11-24T23:38:12.002Z,0.81
2022-11-24T23:40:42.948Z,0.80
2022-11-24T23:43:13.751Z,0.82
2022-11-24T23:45:44.574Z,0.86
2022-11-24T23:48:15.460Z,0.88
2022-11-24T23:50:46.101Z,0.91
2022-11-24T23:53:16.745Z,0.94
2022-11-24T23:55:55.534Z,0.95
2022-11-24T23:58:26.183Z,0.97
